Time;durP1;ratioP1;P1;durP2;ratioP2;P2;SDS_P1;SDS_P2;PMS_P1;PMS_P2;Temp;Humidity;BMP_temperature;BMP_pressure;BME280_temperature;BME280_humidity;BME280_pressure;Samples;Min_cycle;Max_cycle;Signal;HPM_P1;HPM_P2
2023/05/26 00:02:24;;;;;;;1.70;1.60;;;15.20;99.90;;;;;;5030415;28;20228;-61
2023/05/26 00:04:51;;;;;;;1.80;1.70;;;15.20;99.90;;;;;;5030511;28;20702;-63
2023/05/26 00:07:19;;;;;;;1.40;1.40;;;15.20;99.90;;;;;;5030361;28;20201;-63
2023/05/26 00:09:46;;;;;;;1.60;1.50;;;15.20;99.90;;;;;;5029674;28;20313;-63
2023/05/26 00:12:13;;;;;;;1.70;1.60;;;15.20;99.90;;;;;;5030307;28;20208;-61
2023/05/26 00:14:40;;;;;;;1.50;1.50;;;15.10;99.90;;;;;;5030184;28;20212;-62
2023/05/26 00:17:07;;;;;;;1.70;1.60;;;15.10;99.90;;;;;;5030337;28;20209;-61
2023/05/26 00:19:37;;;;;;;1.80;1.70;;;15.00;99.90;;;;;;5029801;28;20220;-61
2023/05/26 00:22:04;;;;;;;1.50;1.40;;;14.90;99.90;;;;;;5030420;28;20220;-61
2023/05/26 00:24:32;;;;;;;1.70;1.60;;;14.90;99.90;;;;;;5032744;28;20218;-63
2023/05/26 00:26:59;;;;;;;1.60;1.50;;;14.70;99.90;;;;;;5033884;28;20214;-62
2023/05/26 00:29:26;;;;;;;1.50;1.40;;;14.70;99.90;;;;;;5033539;28;20247;-61
2023/05/26 00:31:53;;;;;;;1.80;1.70;;;14.70;99.90;;;;;;5034267;28;20215;-61
2023/05/26 00:34:20;;;;;;;1.70;1.58;;;14.60;99.90;;;;;;5034091;28;20394;-61
2023/05/26 00:36:47;;;;;;;1.40;1.30;;;14.60;99.90;;;;;;5033656;28;20580;-62
2023/05/26 00:39:14;;;;;;;1.75;1.65;;;14.60;99.90;;;;;;5033291;28;20614;-61
2023/05/26 00:41:42;;;;;;;1.35;1.35;;;14.60;99.90;;;;;;5033729;28;20682;-61
2023/05/26 00:44:09;;;;;;;1.55;1.45;;;14.60;99.90;;;;;;5034073;28;20319;-61
2023/05/26 00:46:36;;;;;;;1.63;1.52;;;14.60;99.90;;;;;;5034062;28;20204;-61
2023/05/26 00:49:03;;;;;;;1.75;1.65;;;14.60;99.90;;;;;;5033085;28;20246;-62
2023/05/26 00:51:31;;;;;;;1.80;1.70;;;14.60;99.90;;;;;;5033590;28;20232;-61
2023/05/26 00:53:58;;;;;;;1.80;1.70;;;14.60;99.90;;;;;;5033545;28;20216;-62
2023/05/26 00:56:27;;;;;;;1.55;1.45;;;14.40;99.90;;;;;;5033721;28;20299;-61
2023/05/26 00:58:55;;;;;;;1.47;1.43;;;14.60;99.90;;;;;;5033279;28;20235;-61
2023/05/26 01:01:23;;;;;;;1.60;1.53;;;14.60;99.90;;;;;;5032758;28;20319;-61
2023/05/26 01:03:51;;;;;;;1.50;1.50;;;14.60;99.90;;;;;;5033806;28;20212;-61
2023/05/26 01:06:17;;;;;;;1.60;1.50;;;14.50;99.90;;;;;;5033538;28;20209;-61
2023/05/26 01:08:44;;;;;;;1.35;1.35;;;14.40;99.90;;;;;;5033739;28;20233;-61
2023/05/26 01:11:20;;;;;;;1.30;1.30;;;14.40;99.90;;;;;;5032770;28;20207;-61
2023/05/26 01:13:52;;;;;;;1.40;1.38;;;14.40;99.90;;;;;;5033339;28;20201;-61
2023/05/26 01:16:22;;;;;;;1.50;1.40;;;14.30;99.90;;;;;;5033568;28;20265;-63
2023/05/26 01:18:55;;;;;;;1.20;1.20;;;14.30;99.90;;;;;;5033030;28;20228;-61
2023/05/26 01:21:27;;;;;;;1.80;1.70;;;14.20;99.90;;;;;;5032617;28;20219;-63
2023/05/26 01:24:13;;;;;;;1.52;1.42;;;14.20;99.90;;;;;;5033550;28;20264;-62
2023/05/26 01:26:58;;;;;;;1.50;1.40;;;14.20;99.90;;;;;;5033882;28;20563;-62
2023/05/26 01:29:30;;;;;;;1.55;1.45;;;14.20;99.90;;;;;;5033258;28;20236;-61
2023/05/26 01:32:07;;;;;;;2.17;1.70;;;14.20;99.90;;;;;;5029402;28;20185;-62
2023/05/26 01:34:33;;;;;;;1.67;1.58;;;14.20;99.90;;;;;;5033173;28;20223;-62
2023/05/26 01:37:00;;;;;;;1.70;1.60;;;14.10;99.90;;;;;;5033390;28;20208;-62
2023/05/26 01:39:27;;;;;;;2.00;1.83;;;14.10;99.90;;;;;;5032965;28;20228;-62
2023/05/26 01:42:04;;;;;;;1.80;1.70;;;14.10;99.90;;;;;;5031038;28;20224;-61
2023/05/26 01:44:36;;;;;;;1.70;1.60;;;14.00;99.90;;;;;;5033647;28;20189;-61
2023/05/26 01:47:05;;;;;;;1.60;1.50;;;13.90;99.90;;;;;;5033893;28;20195;-62
2023/05/26 01:49:34;;;;;;;1.60;1.50;;;14.00;99.90;;;;;;5033623;28;20229;-63
2023/05/26 01:52:04;;;;;;;1.70;1.60;;;14.00;99.90;;;;;;5035922;28;20215;-61
2023/05/26 01:54:35;;;;;;;1.40;1.40;;;14.30;99.90;;;;;;5034384;28;20608;-61
2023/05/26 01:57:03;;;;;;;1.60;1.50;;;14.10;99.90;;;;;;5033028;28;20209;-61
2023/05/26 01:59:32;;;;;;;1.20;1.20;;;14.10;99.90;;;;;;5032654;28;20225;-61
2023/05/26 02:01:59;;;;;;;1.50;1.40;;;14.10;99.90;;;;;;5033227;28;20271;-62
2023/05/26 02:04:26;;;;;;;1.38;1.38;;;14.20;99.90;;;;;;5033810;28;20655;-61
2023/05/26 02:06:54;;;;;;;1.30;1.30;;;14.30;99.90;;;;;;5033821;28;20581;-62
2023/05/26 02:09:21;;;;;;;1.67;1.58;;;14.30;99.90;;;;;;5032351;28;21014;-62
2023/05/26 02:11:48;;;;;;;1.60;1.50;;;14.30;99.90;;;;;;5033490;28;20201;-62
2023/05/26 02:14:15;;;;;;;1.50;1.50;;;14.20;99.90;;;;;;5033738;28;20295;-61
2023/05/26 02:16:44;;;;;;;1.50;1.40;;;14.20;99.90;;;;;;5033387;28;20208;-62
2023/05/26 02:19:12;;;;;;;1.90;1.73;;;14.20;99.90;;;;;;5032885;28;20221;-61
2023/05/26 02:21:39;;;;;;;1.20;1.20;;;14.10;99.90;;;;;;5036844;28;20316;-63
2023/05/26 02:24:06;;;;;;;1.23;1.23;;;14.00;99.90;;;;;;5035119;28;20222;-61
2023/05/26 02:26:34;;;;;;;1.47;1.40;;;13.90;99.90;;;;;;5034384;28;20292;-63
2023/05/26 02:29:01;;;;;;;1.70;1.60;;;13.90;99.90;;;;;;5033563;28;20382;-62
2023/05/26 02:31:28;;;;;;;1.30;1.30;;;13.80;99.90;;;;;;5033451;28;20635;-62
2023/05/26 02:33:56;;;;;;;1.20;1.20;;;13.80;99.90;;;;;;5033412;28;20204;-62
2023/05/26 02:36:23;;;;;;;1.40;1.40;;;13.90;99.90;;;;;;5032941;28;20556;-61
2023/05/26 02:38:50;;;;;;;1.43;1.43;;;13.90;99.90;;;;;;5032623;28;20575;-61
2023/05/26 02:41:17;;;;;;;1.20;1.20;;;13.80;99.90;;;;;;5031124;28;20594;-62
2023/05/26 02:43:44;;;;;;;1.70;1.60;;;13.90;99.90;;;;;;5032175;28;20697;-61
2023/05/26 02:46:11;;;;;;;1.50;1.40;;;13.90;99.90;;;;;;5032717;28;20227;-62
2023/05/26 02:48:38;;;;;;;1.70;1.60;;;13.80;99.90;;;;;;5032854;28;20272;-59
2023/05/26 02:51:06;;;;;;;1.47;1.43;;;13.80;99.90;;;;;;5031902;28;20211;-62
2023/05/26 02:53:33;;;;;;;2.30;1.50;;;13.90;99.90;;;;;;5032629;28;20205;-61
2023/05/26 02:56:00;;;;;;;1.40;1.40;;;13.80;99.90;;;;;;5032650;28;20585;-62
2023/05/26 02:58:28;;;;;;;1.70;1.60;;;13.80;99.90;;;;;;5033213;28;20229;-61
2023/05/26 03:00:55;;;;;;;1.60;1.50;;;13.80;99.90;;;;;;5032424;28;20220;-61
2023/05/26 03:03:22;;;;;;;1.60;1.50;;;13.70;99.90;;;;;;5035653;28;20224;-63
2023/05/26 03:05:48;;;;;;;1.70;1.60;;;13.90;99.90;;;;;;5035080;28;20275;-61
2023/05/26 03:08:17;;;;;;;1.27;1.27;;;13.70;99.90;;;;;;5033738;28;20267;-62
2023/05/26 03:10:43;;;;;;;1.38;1.38;;;13.60;99.90;;;;;;5033057;28;20371;-60
2023/05/26 03:13:10;;;;;;;1.52;1.50;;;13.70;99.90;;;;;;5033219;28;20232;-61
2023/05/26 03:15:39;;;;;;;2.25;1.42;;;13.60;99.90;;;;;;5031955;28;20234;-61
2023/05/26 03:18:06;;;;;;;1.45;1.40;;;13.70;99.90;;;;;;5032295;28;20204;-62
2023/05/26 03:20:33;;;;;;;1.50;1.40;;;13.70;99.90;;;;;;5031977;28;20208;-62
2023/05/26 03:23:00;;;;;;;1.40;1.40;;;13.60;99.90;;;;;;5032514;28;20246;-62
2023/05/26 03:25:28;;;;;;;1.40;1.40;;;13.60;99.90;;;;;;5031927;28;20205;-61
2023/05/26 03:27:55;;;;;;;1.25;1.25;;;13.60;99.90;;;;;;5032024;28;20299;-61
2023/05/26 03:30:22;;;;;;;1.30;1.30;;;13.60;99.90;;;;;;5031713;28;20232;-61
2023/05/26 03:32:49;;;;;;;1.40;1.40;;;13.60;99.90;;;;;;5032068;28;20204;-63
2023/05/26 03:35:15;;;;;;;1.50;1.40;;;13.70;99.90;;;;;;5031820;28;20204;-63
2023/05/26 03:37:42;;;;;;;1.60;1.50;;;13.70;99.90;;;;;;5032106;28;20208;-63
2023/05/26 03:40:10;;;;;;;1.40;1.40;;;13.70;99.90;;;;;;5031537;28;20252;-61
2023/05/26 03:42:38;;;;;;;1.35;1.35;;;13.70;99.90;;;;;;5032274;28;20582;-62
2023/05/26 03:45:05;;;;;;;1.63;1.52;;;13.70;99.90;;;;;;5032521;28;20208;-64
2023/05/26 03:47:32;;;;;;;1.50;1.50;;;13.70;99.90;;;;;;5032034;28;20306;-61
2023/05/26 03:49:59;;;;;;;1.50;1.40;;;13.70;99.90;;;;;;5031088;28;20240;-61
2023/05/26 03:52:27;;;;;;;1.25;1.25;;;13.60;99.90;;;;;;5031744;28;20304;-62
2023/05/26 03:54:53;;;;;;;1.50;1.40;;;13.60;99.90;;;;;;5031607;28;20208;-61
2023/05/26 03:57:20;;;;;;;1.50;1.40;;;13.60;99.90;;;;;;5031458;28;20212;-64
2023/05/26 03:59:48;;;;;;;1.60;1.50;;;13.70;99.90;;;;;;5033366;28;20224;-62
2023/05/26 04:02:16;;;;;;;1.40;1.40;;;13.80;99.90;;;;;;5035450;28;20228;-62
2023/05/26 04:04:43;;;;;;;1.65;1.55;;;13.80;99.90;;;;;;5035889;28;20302;-62
2023/05/26 04:07:10;;;;;;;1.50;1.40;;;13.80;99.90;;;;;;5035884;28;20300;-60
2023/05/26 04:09:36;;;;;;;1.50;1.40;;;13.90;99.90;;;;;;5034918;28;20220;-61
2023/05/26 04:12:05;;;;;;;1.40;1.40;;;14.00;99.90;;;;;;5035838;28;20212;-63
2023/05/26 04:14:32;;;;;;;1.80;1.70;;;14.00;99.90;;;;;;5035188;28;20270;-61
2023/05/26 04:17:00;;;;;;;1.60;1.50;;;14.00;99.90;;;;;;5035785;28;20208;-63
2023/05/26 04:19:27;;;;;;;1.60;1.50;;;14.00;99.90;;;;;;5035033;28;20227;-60
2023/05/26 04:21:53;;;;;;;1.77;1.67;;;13.90;99.90;;;;;;5037396;28;20204;-61
2023/05/26 04:24:20;;;;;;;1.48;1.45;;;13.90;99.90;;;;;;5036977;28;20640;-60
2023/05/26 04:26:48;;;;;;;1.50;1.50;;;13.80;99.90;;;;;;5037138;28;20204;-63
2023/05/26 04:29:15;;;;;;;1.70;1.60;;;13.80;99.90;;;;;;5035453;28;20256;-60
2023/05/26 04:31:42;;;;;;;1.57;1.50;;;13.90;99.90;;;;;;5035255;28;20671;-61
2023/05/26 04:34:10;;;;;;;1.60;1.50;;;13.90;99.90;;;;;;5035053;28;20259;-61
2023/05/26 04:36:38;;;;;;;1.50;1.40;;;13.90;99.90;;;;;;5036573;28;20526;-61
2023/05/26 04:39:06;;;;;;;1.55;1.45;;;13.90;99.90;;;;;;5044440;28;20265;-61
2023/05/26 04:41:33;;;;;;;1.40;1.40;;;13.90;99.90;;;;;;5036152;28;20557;-62
2023/05/26 04:44:00;;;;;;;1.70;1.60;;;14.00;99.90;;;;;;5037493;28;20632;-61
2023/05/26 04:46:28;;;;;;;1.60;1.50;;;14.00;99.90;;;;;;5047363;28;20205;-60
2023/05/26 04:48:57;;;;;;;1.60;1.50;;;14.00;99.90;;;;;;5037947;28;20255;-63
2023/05/26 04:51:25;;;;;;;1.40;1.40;;;14.00;99.90;;;;;;5036160;28;20247;-61
2023/05/26 04:53:53;;;;;;;1.77;1.67;;;14.00;99.90;;;;;;5034693;28;20236;-62
2023/05/26 04:56:21;;;;;;;1.60;1.50;;;14.10;99.90;;;;;;5034686;28;20552;-62
2023/05/26 04:58:48;;;;;;;1.70;1.60;;;14.10;99.90;;;;;;5034508;28;20304;-62
2023/05/26 05:01:16;;;;;;;1.60;1.50;;;14.30;99.90;;;;;;5033417;28;20204;-62
2023/05/26 05:03:43;;;;;;;3.50;3.30;;;14.30;99.90;;;;;;5033494;28;20239;-62
2023/05/26 05:06:10;;;;;;;2.13;2.00;;;14.30;99.90;;;;;;5034011;28;20259;-62
2023/05/26 05:08:39;;;;;;;2.10;1.90;;;14.40;99.90;;;;;;5035337;28;20232;-61
2023/05/26 05:11:06;;;;;;;1.80;1.70;;;14.50;99.90;;;;;;5034483;28;20204;-61
2023/05/26 05:13:33;;;;;;;1.60;1.50;;;14.60;99.90;;;;;;5034995;28;20267;-61
2023/05/26 05:16:00;;;;;;;1.50;1.40;;;14.60;99.90;;;;;;5037112;28;20212;-60
2023/05/26 05:18:27;;;;;;;1.47;1.43;;;14.90;99.90;;;;;;5035494;28;20665;-64
2023/05/26 05:20:54;;;;;;;1.80;1.70;;;15.10;99.90;;;;;;5035963;28;20215;-62
2023/05/26 05:23:21;;;;;;;2.00;1.90;;;15.20;99.90;;;;;;5036180;28;20224;-63
2023/05/26 05:25:49;;;;;;;2.08;1.98;;;15.40;99.90;;;;;;5034415;28;20319;-62
2023/05/26 05:28:16;;;;;;;2.00;1.77;;;15.40;99.90;;;;;;5033500;28;20239;-62
2023/05/26 05:30:43;;;;;;;1.60;1.50;;;15.70;99.90;;;;;;5032233;28;20208;-60
2023/05/26 05:33:09;;;;;;;1.70;1.60;;;15.90;99.90;;;;;;5033390;28;20204;-61
2023/05/26 05:35:36;;;;;;;2.03;1.93;;;16.10;99.90;;;;;;5033133;28;20213;-61
2023/05/26 05:38:04;;;;;;;2.00;1.90;;;16.20;99.90;;;;;;5033488;28;20316;-61
2023/05/26 05:40:31;;;;;;;1.93;1.83;;;16.30;99.90;;;;;;5032459;28;20639;-61
2023/05/26 05:43:00;;;;;;;1.80;1.70;;;16.40;99.90;;;;;;5034353;28;20233;-62
2023/05/26 05:45:28;;;;;;;2.00;1.90;;;16.60;99.90;;;;;;5032746;28;20633;-63
2023/05/26 05:47:54;;;;;;;2.20;2.10;;;16.70;99.90;;;;;;5032497;28;20215;-63
2023/05/26 05:50:21;;;;;;;2.15;2.05;;;16.70;99.90;;;;;;5032422;28;20562;-63
2023/05/26 05:52:48;;;;;;;2.10;2.00;;;16.70;99.90;;;;;;5032822;28;20201;-62
2023/05/26 05:55:15;;;;;;;2.15;1.95;;;16.70;99.90;;;;;;5032778;28;20204;-63
2023/05/26 05:57:42;;;;;;;2.10;2.00;;;16.80;99.90;;;;;;5032736;28;20219;-61
2023/05/26 06:00:11;;;;;;;2.10;2.00;;;17.00;99.90;;;;;;5032189;28;20232;-60
2023/05/26 06:02:39;;;;;;;2.25;2.15;;;17.00;99.90;;;;;;5032852;28;20220;-61
2023/05/26 06:05:06;;;;;;;2.33;2.22;;;16.90;99.90;;;;;;5032986;28;20252;-62
2023/05/26 06:07:33;;;;;;;2.20;2.10;;;16.80;99.90;;;;;;5032429;28;20210;-63
2023/05/26 06:09:59;;;;;;;2.20;2.10;;;16.80;99.90;;;;;;5031839;28;20554;-60
2023/05/26 06:12:26;;;;;;;2.50;2.30;;;16.90;99.90;;;;;;5032887;28;20276;-61
2023/05/26 06:14:53;;;;;;;2.00;1.90;;;17.00;99.90;;;;;;5032146;28;20208;-62
2023/05/26 06:17:21;;;;;;;2.28;2.17;;;17.10;99.90;;;;;;5031813;28;20215;-61
2023/05/26 06:19:48;;;;;;;2.22;2.13;;;17.10;99.90;;;;;;5031457;28;20315;-62
2023/05/26 06:22:15;;;;;;;2.85;2.15;;;17.00;99.90;;;;;;5031638;28;20223;-62
2023/05/26 06:24:42;;;;;;;2.20;2.00;;;17.00;99.90;;;;;;5031928;28;20228;-60
2023/05/26 06:27:08;;;;;;;2.20;2.10;;;17.00;99.90;;;;;;5031925;28;20640;-61
2023/05/26 06:29:35;;;;;;;2.50;2.30;;;17.00;99.90;;;;;;5031090;28;20224;-61
2023/05/26 06:32:03;;;;;;;2.13;2.03;;;17.00;99.90;;;;;;5031679;28;20215;-62
2023/05/26 06:34:31;;;;;;;2.10;2.00;;;17.10;99.90;;;;;;5031522;28;20205;-63
2023/05/26 06:36:58;;;;;;;2.50;2.25;;;17.30;99.90;;;;;;5032275;28;20211;-63
2023/05/26 06:39:25;;;;;;;2.40;2.30;;;17.20;99.90;;;;;;5031218;28;20778;-63
2023/05/26 06:41:52;;;;;;;2.90;2.10;;;17.10;99.90;;;;;;5031939;28;20205;-61
2023/05/26 06:44:19;;;;;;;2.20;2.10;;;17.30;99.90;;;;;;5031373;28;20227;-63
2023/05/26 06:46:46;;;;;;;2.22;2.10;;;17.40;99.90;;;;;;5032134;28;20307;-63
2023/05/26 06:49:13;;;;;;;2.15;2.05;;;17.40;99.90;;;;;;5030508;28;20242;-62
2023/05/26 06:51:41;;;;;;;2.28;2.10;;;17.50;99.90;;;;;;5031481;28;20204;-61
2023/05/26 06:54:08;;;;;;;2.50;2.40;;;17.60;99.90;;;;;;5031147;28;20295;-61
2023/05/26 06:56:36;;;;;;;2.45;2.30;;;17.70;99.90;;;;;;5031080;28;20280;-63
2023/05/26 06:59:03;;;;;;;2.50;2.08;;;17.90;99.90;;;;;;5030752;28;20714;-59
2023/05/26 07:01:29;;;;;;;2.40;2.20;;;17.90;99.90;;;;;;5030817;28;20213;-62
2023/05/26 07:03:56;;;;;;;2.80;2.60;;;18.10;99.90;;;;;;5031005;28;20224;-62
2023/05/26 07:06:23;;;;;;;2.30;2.20;;;18.20;99.90;;;;;;5031613;28;20226;-62
2023/05/26 07:08:51;;;;;;;2.40;2.30;;;18.20;99.90;;;;;;5031061;28;20224;-61
2023/05/26 07:11:18;;;;;;;2.30;2.10;;;18.30;99.90;;;;;;5030511;28;20295;-62
2023/05/26 07:13:46;;;;;;;2.20;2.10;;;18.30;99.90;;;;;;5031026;28;20648;-62
2023/05/26 07:16:13;;;;;;;2.38;2.22;;;18.30;99.90;;;;;;5031237;28;20189;-61
2023/05/26 07:18:40;;;;;;;2.40;2.20;;;18.30;99.90;;;;;;5031078;28;20311;-62
2023/05/26 07:21:06;;;;;;;2.22;2.13;;;18.60;99.90;;;;;;5031013;28;20284;-62
2023/05/26 07:23:33;;;;;;;2.17;2.07;;;18.70;99.90;;;;;;5031047;28;20229;-62
2023/05/26 07:26:01;;;;;;;2.20;2.10;;;18.70;99.90;;;;;;5031508;28;20203;-62
2023/05/26 07:28:28;;;;;;;2.17;2.07;;;18.70;99.90;;;;;;5031651;28;20657;-61
2023/05/26 07:30:55;;;;;;;2.47;2.28;;;18.70;99.90;;;;;;5029982;28;20204;-63
2023/05/26 07:33:22;;;;;;;2.03;1.92;;;18.60;99.90;;;;;;5030297;28;20275;-62
2023/05/26 07:35:49;;;;;;;2.20;2.00;;;18.70;99.90;;;;;;5031144;28;20244;-62
2023/05/26 07:38:17;;;;;;;2.60;2.40;;;18.70;99.90;;;;;;5031755;28;20224;-60
2023/05/26 07:40:44;;;;;;;2.40;2.20;;;18.80;99.90;;;;;;5030944;28;20743;-59
2023/05/26 07:43:13;;;;;;;2.70;1.98;;;19.00;99.90;;;;;;5031760;28;20472;-60
2023/05/26 07:45:40;;;;;;;2.50;2.30;;;19.20;99.90;;;;;;5031353;28;20683;-60
2023/05/26 07:48:07;;;;;;;2.70;2.50;;;19.20;99.90;;;;;;5032251;28;20216;-61
2023/05/26 07:50:34;;;;;;;2.20;2.10;;;19.10;99.90;;;;;;5035544;28;20640;-60
2023/05/26 07:53:01;;;;;;;2.47;2.28;;;19.10;99.90;;;;;;5035535;28;20215;-60
2023/05/26 07:55:27;;;;;;;2.27;2.10;;;19.30;99.90;;;;;;5032477;28;20303;-60
2023/05/26 07:57:55;;;;;;;2.50;2.30;;;19.50;99.90;;;;;;5031441;28;20248;-60
2023/05/26 08:00:23;;;;;;;2.20;2.00;;;19.50;99.90;;;;;;5030518;28;20430;-61
2023/05/26 08:02:51;;;;;;;2.20;2.10;;;19.50;99.90;;;;;;5031388;28;20287;-62
2023/05/26 08:05:18;;;;;;;2.78;2.58;;;19.70;99.90;;;;;;5031334;28;20215;-61
2023/05/26 08:07:45;;;;;;;2.33;2.22;;;19.80;99.90;;;;;;5031865;28;20347;-62
2023/05/26 08:10:12;;;;;;;2.40;2.20;;;19.70;99.90;;;;;;5031727;28;20315;-61
2023/05/26 08:12:39;;;;;;;2.27;2.03;;;19.70;99.90;;;;;;5031359;28;20656;-61
2023/05/26 08:15:13;;;;;;;2.60;2.40;;;19.70;99.90;;;;;;5031853;28;20252;-61
2023/05/26 08:17:41;;;;;;;2.28;2.17;;;19.70;99.90;;;;;;5035912;28;20188;-63
2023/05/26 08:20:09;;;;;;;2.30;2.20;;;19.80;99.90;;;;;;5034063;28;20327;-61
2023/05/26 08:22:36;;;;;;;2.65;2.28;;;19.90;99.90;;;;;;5034537;28;20573;-63
2023/05/26 08:25:03;;;;;;;2.47;2.28;;;20.00;99.90;;;;;;5032322;28;20232;-62
2023/05/26 08:27:30;;;;;;;2.50;2.40;;;19.90;99.90;;;;;;5033832;28;20304;-61
2023/05/26 08:29:56;;;;;;;2.40;2.20;;;19.70;99.90;;;;;;5032447;28;20358;-61
2023/05/26 08:32:24;;;;;;;2.78;2.58;;;19.80;99.90;;;;;;5031616;28;20667;-61
2023/05/26 08:34:52;;;;;;;2.60;2.40;;;20.00;99.90;;;;;;5030215;28;20200;-63
2023/05/26 08:37:19;;;;;;;2.28;2.17;;;20.00;99.90;;;;;;5030919;28;20219;-62
2023/05/26 08:39:46;;;;;;;2.17;2.07;;;20.10;99.90;;;;;;5030437;28;20396;-61
2023/05/26 08:42:15;;;;;;;2.65;2.45;;;20.10;99.90;;;;;;5032732;28;20212;-64
2023/05/26 08:44:44;;;;;;;2.20;2.10;;;20.10;99.90;;;;;;5033348;28;20228;-62
2023/05/26 08:47:12;;;;;;;3.85;3.55;;;20.10;99.90;;;;;;5035758;28;20648;-62
2023/05/26 08:49:46;;;;;;;2.40;2.30;;;20.20;99.90;;;;;;5034964;28;20239;-62
2023/05/26 08:52:16;;;;;;;2.42;2.33;;;20.00;99.90;;;;;;5037041;28;20288;-62
2023/05/26 08:54:44;;;;;;;2.57;2.37;;;20.10;99.90;;;;;;5035471;28;20193;-63
2023/05/26 08:57:13;;;;;;;2.10;2.00;;;20.20;99.90;;;;;;5035030;28;20654;-61
2023/05/26 08:59:41;;;;;;;2.28;2.17;;;20.40;99.90;;;;;;5035170;28;20232;-63
2023/05/26 09:02:09;;;;;;;2.38;2.28;;;20.50;99.90;;;;;;5035488;28;20204;-62
2023/05/26 09:04:36;;;;;;;2.67;2.47;;;20.70;99.90;;;;;;5035038;28;20584;-64
2023/05/26 09:07:03;;;;;;;2.40;2.20;;;20.80;99.90;;;;;;5038950;28;20265;-64
2023/05/26 09:09:32;;;;;;;2.40;2.20;;;20.80;99.90;;;;;;5036588;28;20619;-63
2023/05/26 09:11:58;;;;;;;2.08;1.98;;;20.90;99.90;;;;;;5034261;28;20215;-62
2023/05/26 09:14:26;;;;;;;2.40;2.20;;;21.00;99.90;;;;;;5034096;28;20297;-63
2023/05/26 09:16:54;;;;;;;2.20;2.10;;;21.00;99.90;;;;;;5034239;28;20215;-62
2023/05/26 09:19:21;;;;;;;2.20;2.03;;;21.00;99.90;;;;;;5033336;28;20259;-61
2023/05/26 09:21:50;;;;;;;2.08;1.88;;;21.20;99.90;;;;;;5033748;28;20656;-61
2023/05/26 09:24:19;;;;;;;2.15;2.05;;;21.50;99.90;;;;;;5050839;28;20280;-61
2023/05/26 09:26:49;;;;;;;2.10;2.00;;;21.60;99.90;;;;;;5034732;28;20210;-62
2023/05/26 09:29:16;;;;;;;2.03;1.92;;;21.70;99.90;;;;;;5047369;28;20249;-60
2023/05/26 09:31:44;;;;;;;1.80;1.70;;;21.70;99.90;;;;;;5053963;28;20704;-62
2023/05/26 09:34:12;;;;;;;2.10;2.00;;;21.60;99.90;;;;;;5052882;28;20203;-61
2023/05/26 09:36:40;;;;;;;2.00;1.90;;;21.60;99.90;;;;;;5055212;28;20210;-61
2023/05/26 09:39:09;;;;;;;2.03;1.92;;;21.60;99.90;;;;;;5054156;28;20232;-60
2023/05/26 09:41:37;;;;;;;2.25;2.15;;;21.80;99.90;;;;;;5039605;28;20212;-62
2023/05/26 09:44:13;;;;;;;1.95;1.83;;;21.90;99.90;;;;;;5035323;28;20278;-60
2023/05/26 09:46:40;;;;;;;1.77;1.67;;;22.00;99.90;;;;;;5053574;28;20213;-61
2023/05/26 09:49:12;;;;;;;2.30;2.20;;;22.10;99.90;;;;;;5035630;28;20592;-61
2023/05/26 09:51:39;;;;;;;2.05;1.85;;;22.00;99.90;;;;;;5033072;28;20239;-61
2023/05/26 09:54:08;;;;;;;2.05;1.83;;;22.20;99.90;;;;;;5032825;28;20200;-61
2023/05/26 09:56:37;;;;;;;1.98;1.88;;;22.20;99.90;;;;;;5031877;28;20215;-62
2023/05/26 09:59:05;;;;;;;4.32;4.13;;;22.30;99.90;;;;;;5033422;28;20236;-59
2023/05/26 10:01:37;;;;;;;2.35;2.20;;;22.30;99.90;;;;;;5050973;28;20203;-62
2023/05/26 10:04:07;;;;;;;2.08;1.92;;;22.20;99.90;;;;;;5051200;28;20266;-62
2023/05/26 10:06:36;;;;;;;2.00;1.90;;;22.30;99.90;;;;;;5052872;28;20211;-62
2023/05/26 10:09:04;;;;;;;1.85;1.75;;;22.30;99.90;;;;;;5052153;28;20714;-62
2023/05/26 10:11:34;;;;;;;2.63;1.70;;;22.40;99.90;;;;;;5052971;28;20200;-60
2023/05/26 10:14:03;;;;;;;2.47;2.28;;;22.40;99.90;;;;;;5053649;28;20287;-61
2023/05/26 10:16:30;;;;;;;2.03;1.92;;;22.40;99.90;;;;;;5053220;28;20238;-61
2023/05/26 10:18:58;;;;;;;2.40;2.20;;;22.50;99.90;;;;;;5052533;28;20310;-60
2023/05/26 10:21:30;;;;;;;2.17;2.08;;;22.60;99.90;;;;;;5051538;28;20226;-60
2023/05/26 10:24:04;;;;;;;2.00;1.90;;;22.70;99.90;;;;;;5052612;28;20227;-62
2023/05/26 10:26:41;;;;;;;1.88;1.77;;;22.50;99.90;;;;;;5050678;28;20237;-62
2023/05/26 10:29:11;;;;;;;2.00;1.90;;;22.60;99.90;;;;;;5051436;28;20223;-60
2023/05/26 10:31:40;;;;;;;2.40;2.30;;;22.80;99.90;;;;;;5052341;28;20247;-61
2023/05/26 10:34:14;;;;;;;5.80;5.53;;;22.80;99.90;;;;;;5051453;28;20196;-60
2023/05/26 10:36:41;;;;;;;2.10;1.90;;;22.80;99.90;;;;;;5051522;28;20223;-60
2023/05/26 10:39:11;;;;;;;2.17;1.98;;;22.90;99.90;;;;;;5051096;28;20314;-60
2023/05/26 10:41:39;;;;;;;2.30;1.88;;;23.10;99.90;;;;;;5052202;28;20254;-63
2023/05/26 10:44:07;;;;;;;2.28;2.08;;;23.20;99.90;;;;;;5050060;28;20234;-63
2023/05/26 10:46:38;;;;;;;2.05;1.95;;;23.10;99.90;;;;;;5051571;28;20666;-60
2023/05/26 10:49:19;;;;;;;2.72;2.17;;;23.10;99.90;;;;;;5053485;28;20227;-62
2023/05/26 10:51:51;;;;;;;3.17;2.97;;;23.10;99.90;;;;;;5053858;28;20268;-60
2023/05/26 10:54:22;;;;;;;2.00;1.90;;;23.10;99.90;;;;;;5052296;28;20200;-61
2023/05/26 10:56:51;;;;;;;1.95;1.85;;;23.10;99.90;;;;;;5051648;28;20204;-61
2023/05/26 10:59:24;;;;;;;7.03;6.63;;;23.30;99.90;;;;;;5050792;28;20231;-62
2023/05/26 11:01:52;;;;;;;2.40;2.20;;;23.30;99.90;;;;;;5051468;28;20737;-62
2023/05/26 11:04:21;;;;;;;2.30;2.20;;;23.10;99.90;;;;;;5051592;28;20234;-62
2023/05/26 11:06:51;;;;;;;3.13;2.00;;;23.10;99.90;;;;;;5041817;28;20209;-61
2023/05/26 11:09:22;;;;;;;3.15;2.95;;;23.20;99.90;;;;;;5030756;28;20321;-61
2023/05/26 11:11:57;;;;;;;2.30;2.20;;;23.00;99.90;;;;;;5032750;28;20185;-61
2023/05/26 11:14:25;;;;;;;2.00;1.90;;;23.10;99.90;;;;;;5031886;28;20730;-62
2023/05/26 11:16:55;;;;;;;2.15;2.03;;;23.30;99.90;;;;;;5032544;28;20208;-61
2023/05/26 11:19:28;;;;;;;2.75;2.53;;;23.40;99.90;;;;;;5031593;28;20229;-61
2023/05/26 11:21:58;;;;;;;2.20;2.00;;;23.40;99.90;;;;;;5032215;28;20209;-62
2023/05/26 11:24:25;;;;;;;2.22;2.10;;;23.30;99.90;;;;;;5031409;28;20248;-61
2023/05/26 11:26:52;;;;;;;3.20;3.00;;;23.30;99.90;;;;;;5031251;28;20238;-62
2023/05/26 11:29:23;;;;;;;9.65;9.07;;;23.30;99.90;;;;;;5030213;28;20675;-61
2023/05/26 11:31:51;;;;;;;4.55;4.25;;;23.30;99.90;;;;;;5029753;28;20229;-63
2023/05/26 11:34:18;;;;;;;2.63;2.10;;;23.30;99.90;;;;;;5045428;28;20196;-63
2023/05/26 11:36:47;;;;;;;3.58;3.38;;;23.30;99.90;;;;;;5051110;28;20201;-60
2023/05/26 11:39:16;;;;;;;7.30;6.97;;;23.50;99.90;;;;;;5050734;28;20228;-61
2023/05/26 11:41:43;;;;;;;3.17;2.97;;;23.30;99.90;;;;;;5050403;28;20733;-60
2023/05/26 11:44:12;;;;;;;2.83;2.63;;;23.40;99.90;;;;;;5050919;28;20207;-61
2023/05/26 11:46:40;;;;;;;1.70;1.60;;;23.60;99.90;;;;;;5050820;28;20286;-61
2023/05/26 11:49:12;;;;;;;2.30;2.03;;;23.80;99.90;;;;;;5049880;28;20236;-62
2023/05/26 11:51:45;;;;;;;2.33;2.13;;;23.80;99.90;;;;;;5051588;28;20207;-62
2023/05/26 11:54:12;;;;;;;1.73;1.63;;;24.00;99.90;;;;;;5051313;28;20203;-61
2023/05/26 11:56:40;;;;;;;3.80;3.35;;;24.00;99.90;;;;;;5050398;28;20218;-61
2023/05/26 11:59:07;;;;;;;3.20;3.00;;;24.10;99.90;;;;;;5049703;28;20314;-60
2023/05/26 12:01:35;;;;;;;2.05;1.85;;;24.10;99.90;;;;;;5051568;28;20207;-61
2023/05/26 12:04:04;;;;;;;2.22;1.88;;;24.30;99.90;;;;;;5052351;28;20234;-62
2023/05/26 12:06:32;;;;;;;2.00;1.90;;;24.20;99.90;;;;;;5056078;28;20228;-61
2023/05/26 12:09:00;;;;;;;2.33;2.20;;;24.30;99.90;;;;;;5059954;28;20224;-63
2023/05/26 12:11:35;;;;;;;1.90;1.80;;;24.40;99.90;;;;;;5057917;28;20211;-62
2023/05/26 12:14:05;;;;;;;3.80;3.55;;;24.30;99.90;;;;;;5059156;28;20203;-61
2023/05/26 12:16:33;;;;;;;2.10;2.00;;;24.30;99.90;;;;;;5052963;28;20215;-60
2023/05/26 12:19:03;;;;;;;5.10;4.88;;;24.30;99.90;;;;;;5050781;28;20234;-60
2023/05/26 12:21:30;;;;;;;5.60;5.25;;;24.20;99.90;;;;;;5054551;28;20212;-62
2023/05/26 12:23:59;;;;;;;2.40;2.20;;;24.10;99.90;;;;;;5054772;28;20204;-61
2023/05/26 12:26:29;;;;;;;6.82;6.38;;;24.30;99.90;;;;;;5054641;28;20253;-64
2023/05/26 12:29:13;;;;;;;2.15;1.98;;;24.20;99.90;;;;;;5054743;28;20604;-62
2023/05/26 12:31:42;;;;;;;4.60;4.22;;;24.30;99.90;;;;;;5054772;28;20261;-62
2023/05/26 12:34:10;;;;;;;2.75;2.60;;;24.30;99.90;;;;;;5054934;28;20303;-62
2023/05/26 12:36:37;;;;;;;2.03;1.92;;;24.40;99.90;;;;;;5054242;28;20214;-62
2023/05/26 12:39:04;;;;;;;4.75;4.45;;;24.30;99.90;;;;;;5053923;28;20278;-61
2023/05/26 12:41:31;;;;;;;3.67;3.47;;;24.10;99.90;;;;;;5037218;28;20209;-61
2023/05/26 12:43:59;;;;;;;7.05;6.65;;;24.00;99.90;;;;;;5029138;28;20227;-61
2023/05/26 12:46:27;;;;;;;2.05;1.95;;;24.00;99.90;;;;;;5034067;28;20715;-61
2023/05/26 12:48:53;;;;;;;1.73;1.63;;;24.10;99.90;;;;;;5033490;28;20235;-61
2023/05/26 12:51:20;;;;;;;2.90;2.75;;;24.30;99.90;;;;;;5033055;28;20386;-61
2023/05/26 12:53:47;;;;;;;2.15;1.95;;;24.40;99.90;;;;;;5033212;28;20232;-63